sensor_id;sensor_type;location;lat;lon;timestamp;P1;durP1;ratioP1;P2;durP2;ratioP2
69203;SDS011;56317;27.658;85.326;2022-10-16T00:01:29;22.98;;;14.52;;
69203;SDS011;56317;27.658;85.326;2022-10-16T00:03:58;27.63;;;17.08;;
69203;SDS011;56317;27.658;85.326;2022-10-16T00:06:26;27.35;;;17.00;;
69203;SDS011;56317;27.658;85.326;2022-10-16T00:08:55;36.67;;;19.85;;
69203;SDS011;56317;27.658;85.326;2022-10-16T00:11:26;28.33;;;18.92;;
69203;SDS011;56317;27.658;85.326;2022-10-16T00:13:57;28.00;;;18.58;;
69203;SDS011;56317;27.658;85.326;2022-10-16T00:16:27;31.20;;;17.77;;
69203;SDS011;56317;27.658;85.326;2022-10-16T00:18:55;25.27;;;16.08;;
69203;SDS011;56317;27.658;85.326;2022-10-16T00:21:24;28.55;;;16.33;;
69203;SDS011;56317;27.658;85.326;2022-10-16T00:23:54;30.65;;;16.77;;
69203;SDS011;56317;27.658;85.326;2022-10-16T00:26:24;28.00;;;15.70;;
69203;SDS011;56317;27.658;85.326;2022-10-16T00:28:53;24.00;;;15.25;;
69203;SDS011;56317;27.658;85.326;2022-10-16T00:31:21;25.85;;;15.15;;
69203;SDS011;56317;27.658;85.326;2022-10-16T00:33:49;30.48;;;16.30;;
69203;SDS011;56317;27.658;85.326;2022-10-16T00:36:18;33.47;;;17.75;;
69203;SDS011;56317;27.658;85.326;2022-10-16T00:38:49;35.72;;;16.90;;
69203;SDS011;56317;27.658;85.326;2022-10-16T00:41:19;33.60;;;18.42;;
69203;SDS011;56317;27.658;85.326;2022-10-16T00:51:28;41.75;;;19.35;;
69203;SDS011;56317;27.658;85.326;2022-10-16T00:54:06;37.75;;;19.20;;
69203;SDS011;56317;27.658;85.326;2022-10-16T00:56:39;39.90;;;20.17;;
69203;SDS011;56317;27.658;85.326;2022-10-16T00:59:14;33.78;;;20.45;;
69203;SDS011;56317;27.658;85.326;2022-10-16T01:01:44;38.33;;;21.40;;
69203;SDS011;56317;27.658;85.326;2022-10-16T01:04:11;41.30;;;22.60;;
69203;SDS011;56317;27.658;85.326;2022-10-16T01:17:41;45.40;;;25.77;;
69203;SDS011;56317;27.658;85.326;2022-10-16T01:20:37;40.10;;;24.13;;
69203;SDS011;56317;27.658;85.326;2022-10-16T01:28:37;34.38;;;20.58;;
69203;SDS011;56317;27.658;85.326;2022-10-16T01:31:11;39.40;;;19.65;;
69203;SDS011;56317;27.658;85.326;2022-10-16T01:33:48;40.10;;;20.80;;
69203;SDS011;56317;27.658;85.326;2022-10-16T01:36:23;43.60;;;19.60;;
69203;SDS011;56317;27.658;85.326;2022-10-16T01:38:55;38.55;;;19.88;;
69203;SDS011;56317;27.658;85.326;2022-10-16T01:41:33;39.25;;;24.27;;
69203;SDS011;56317;27.658;85.326;2022-10-16T01:44:12;49.13;;;28.48;;
69203;SDS011;56317;27.658;85.326;2022-10-16T01:46:46;52.38;;;30.75;;
69203;SDS011;56317;27.658;85.326;2022-10-16T01:49:17;56.33;;;32.53;;
69203;SDS011;56317;27.658;85.326;2022-10-16T01:51:47;43.97;;;30.50;;
69203;SDS011;56317;27.658;85.326;2022-10-16T01:54:18;50.33;;;28.65;;
69203;SDS011;56317;27.658;85.326;2022-10-16T01:56:47;43.85;;;26.63;;
69203;SDS011;56317;27.658;85.326;2022-10-16T01:59:17;42.78;;;25.45;;
69203;SDS011;56317;27.658;85.326;2022-10-16T02:01:50;47.85;;;26.85;;
69203;SDS011;56317;27.658;85.326;2022-10-16T02:04:26;44.35;;;26.30;;
69203;SDS011;56317;27.658;85.326;2022-10-16T02:07:03;39.28;;;25.20;;
69203;SDS011;56317;27.658;85.326;2022-10-16T02:09:32;39.45;;;24.17;;
69203;SDS011;56317;27.658;85.326;2022-10-16T02:12:01;40.20;;;22.52;;
69203;SDS011;56317;27.658;85.326;2022-10-16T02:14:41;39.20;;;23.15;;
69203;SDS011;56317;27.658;85.326;2022-10-16T02:17:12;38.10;;;23.23;;
69203;SDS011;56317;27.658;85.326;2022-10-16T02:19:41;38.10;;;23.75;;
69203;SDS011;56317;27.658;85.326;2022-10-16T02:22:14;41.45;;;25.08;;
69203;SDS011;56317;27.658;85.326;2022-10-16T02:24:54;47.78;;;25.75;;
69203;SDS011;56317;27.658;85.326;2022-10-16T02:30:24;54.47;;;29.17;;
69203;SDS011;56317;27.658;85.326;2022-10-16T02:32:55;55.83;;;31.55;;
69203;SDS011;56317;27.658;85.326;2022-10-16T02:35:24;51.20;;;32.22;;
69203;SDS011;56317;27.658;85.326;2022-10-16T02:37:53;59.33;;;35.47;;
69203;SDS011;56317;27.658;85.326;2022-10-16T02:40:21;54.15;;;33.47;;
69203;SDS011;56317;27.658;85.326;2022-10-16T02:42:52;52.60;;;34.08;;
69203;SDS011;56317;27.658;85.326;2022-10-16T02:45:20;52.50;;;33.03;;
69203;SDS011;56317;27.658;85.326;2022-10-16T02:47:48;56.70;;;34.15;;
69203;SDS011;56317;27.658;85.326;2022-10-16T02:50:16;57.17;;;35.22;;
69203;SDS011;56317;27.658;85.326;2022-10-16T02:52:43;51.85;;;33.53;;
69203;SDS011;56317;27.658;85.326;2022-10-16T02:55:11;58.40;;;33.15;;
69203;SDS011;56317;27.658;85.326;2022-10-16T02:57:38;49.83;;;31.73;;
69203;SDS011;56317;27.658;85.326;2022-10-16T03:00:08;43.63;;;30.58;;
69203;SDS011;56317;27.658;85.326;2022-10-16T03:02:38;44.40;;;29.10;;
69203;SDS011;56317;27.658;85.326;2022-10-16T03:05:05;43.35;;;26.33;;
69203;SDS011;56317;27.658;85.326;2022-10-16T03:07:33;36.65;;;23.38;;
69203;SDS011;56317;27.658;85.326;2022-10-16T03:10:00;32.08;;;22.85;;
69203;SDS011;56317;27.658;85.326;2022-10-16T03:12:28;39.25;;;23.23;;
69203;SDS011;56317;27.658;85.326;2022-10-16T03:14:56;39.22;;;23.55;;
69203;SDS011;56317;27.658;85.326;2022-10-16T03:17:23;30.73;;;20.85;;
69203;SDS011;56317;27.658;85.326;2022-10-16T03:19:51;34.17;;;20.80;;
69203;SDS011;56317;27.658;85.326;2022-10-16T03:22:18;36.67;;;20.20;;
69203;SDS011;56317;27.658;85.326;2022-10-16T03:24:46;29.65;;;18.45;;
69203;SDS011;56317;27.658;85.326;2022-10-16T03:27:13;25.88;;;16.65;;
69203;SDS011;56317;27.658;85.326;2022-10-16T03:29:40;23.42;;;13.90;;
69203;SDS011;56317;27.658;85.326;2022-10-16T03:32:07;22.13;;;13.73;;
69203;SDS011;56317;27.658;85.326;2022-10-16T03:34:35;23.95;;;14.10;;
69203;SDS011;56317;27.658;85.326;2022-10-16T03:37:02;20.73;;;12.93;;
69203;SDS011;56317;27.658;85.326;2022-10-16T03:39:29;24.00;;;12.88;;
69203;SDS011;56317;27.658;85.326;2022-10-16T03:41:56;23.45;;;12.55;;
69203;SDS011;56317;27.658;85.326;2022-10-16T03:44:23;16.65;;;11.93;;
69203;SDS011;56317;27.658;85.326;2022-10-16T03:46:51;16.98;;;11.20;;
69203;SDS011;56317;27.658;85.326;2022-10-16T03:49:18;15.80;;;10.38;;
69203;SDS011;56317;27.658;85.326;2022-10-16T03:51:45;18.13;;;10.95;;
69203;SDS011;56317;27.658;85.326;2022-10-16T03:54:12;16.63;;;9.80;;
69203;SDS011;56317;27.658;85.326;2022-10-16T03:56:40;18.52;;;10.90;;
69203;SDS011;56317;27.658;85.326;2022-10-16T03:59:07;21.83;;;12.05;;
69203;SDS011;56317;27.658;85.326;2022-10-16T04:01:34;17.10;;;12.43;;
69203;SDS011;56317;27.658;85.326;2022-10-16T04:04:01;16.30;;;11.88;;
69203;SDS011;56317;27.658;85.326;2022-10-16T04:06:29;22.02;;;12.23;;
69203;SDS011;56317;27.658;85.326;2022-10-16T04:08:56;21.52;;;11.48;;
69203;SDS011;56317;27.658;85.326;2022-10-16T04:11:23;18.23;;;10.75;;
69203;SDS011;56317;27.658;85.326;2022-10-16T04:13:50;22.30;;;13.13;;
69203;SDS011;56317;27.658;85.326;2022-10-16T04:16:17;18.67;;;11.85;;
69203;SDS011;56317;27.658;85.326;2022-10-16T04:18:45;22.15;;;12.82;;
69203;SDS011;56317;27.658;85.326;2022-10-16T04:21:12;21.08;;;12.82;;
69203;SDS011;56317;27.658;85.326;2022-10-16T04:23:39;21.23;;;13.48;;
69203;SDS011;56317;27.658;85.326;2022-10-16T04:26:06;24.15;;;13.10;;
69203;SDS011;56317;27.658;85.326;2022-10-16T04:28:33;18.42;;;11.73;;
69203;SDS011;56317;27.658;85.326;2022-10-16T04:31:03;16.92;;;12.25;;
69203;SDS011;56317;27.658;85.326;2022-10-16T04:33:30;18.20;;;12.63;;
69203;SDS011;56317;27.658;85.326;2022-10-16T04:35:58;22.00;;;13.00;;
69203;SDS011;56317;27.658;85.326;2022-10-16T04:38:27;19.00;;;11.73;;
69203;SDS011;56317;27.658;85.326;2022-10-16T04:40:54;17.63;;;10.90;;
69203;SDS011;56317;27.658;85.326;2022-10-16T04:43:22;19.00;;;11.60;;
69203;SDS011;56317;27.658;85.326;2022-10-16T04:45:49;22.58;;;11.30;;
69203;SDS011;56317;27.658;85.326;2022-10-16T04:48:17;19.23;;;11.20;;
69203;SDS011;56317;27.658;85.326;2022-10-16T04:50:44;22.85;;;11.32;;
69203;SDS011;56317;27.658;85.326;2022-10-16T04:53:12;19.10;;;10.32;;
69203;SDS011;56317;27.658;85.326;2022-10-16T04:55:39;20.10;;;10.63;;
69203;SDS011;56317;27.658;85.326;2022-10-16T04:58:07;19.77;;;9.93;;
69203;SDS011;56317;27.658;85.326;2022-10-16T05:00:34;17.98;;;9.30;;
69203;SDS011;56317;27.658;85.326;2022-10-16T05:03:03;15.73;;;9.23;;
69203;SDS011;56317;27.658;85.326;2022-10-16T05:05:33;16.17;;;8.63;;
69203;SDS011;56317;27.658;85.326;2022-10-16T05:08:02;16.70;;;8.80;;
69203;SDS011;56317;27.658;85.326;2022-10-16T05:10:29;7.80;;;4.63;;
69203;SDS011;56317;27.658;85.326;2022-10-16T05:12:57;8.85;;;5.85;;
69203;SDS011;56317;27.658;85.326;2022-10-16T05:15:24;9.93;;;6.85;;
69203;SDS011;56317;27.658;85.326;2022-10-16T05:17:54;14.95;;;7.07;;
69203;SDS011;56317;27.658;85.326;2022-10-16T05:20:22;12.07;;;7.32;;
69203;SDS011;56317;27.658;85.326;2022-10-16T05:22:49;11.07;;;6.05;;
69203;SDS011;56317;27.658;85.326;2022-10-16T05:25:16;9.65;;;5.75;;
69203;SDS011;56317;27.658;85.326;2022-10-16T05:27:46;14.45;;;6.65;;
69203;SDS011;56317;27.658;85.326;2022-10-16T05:30:15;11.18;;;6.18;;
69203;SDS011;56317;27.658;85.326;2022-10-16T05:32:46;11.07;;;5.75;;
69203;SDS011;56317;27.658;85.326;2022-10-16T05:35:17;13.52;;;5.40;;
69203;SDS011;56317;27.658;85.326;2022-10-16T05:37:44;10.43;;;6.43;;
69203;SDS011;56317;27.658;85.326;2022-10-16T05:40:12;12.85;;;6.18;;
69203;SDS011;56317;27.658;85.326;2022-10-16T05:42:40;10.52;;;5.85;;
69203;SDS011;56317;27.658;85.326;2022-10-16T05:45:09;11.32;;;5.82;;
69203;SDS011;56317;27.658;85.326;2022-10-16T05:47:37;13.13;;;6.22;;
69203;SDS011;56317;27.658;85.326;2022-10-16T05:50:06;8.80;;;4.72;;
69203;SDS011;56317;27.658;85.326;2022-10-16T05:52:34;13.05;;;4.47;;
69203;SDS011;56317;27.658;85.326;2022-10-16T05:55:01;8.43;;;4.80;;
69203;SDS011;56317;27.658;85.326;2022-10-16T05:57:29;8.90;;;4.40;;
69203;SDS011;56317;27.658;85.326;2022-10-16T05:59:56;10.88;;;4.50;;
69203;SDS011;56317;27.658;85.326;2022-10-16T06:02:24;10.52;;;5.10;;
69203;SDS011;56317;27.658;85.326;2022-10-16T06:04:51;10.15;;;4.50;;
69203;SDS011;56317;27.658;85.326;2022-10-16T06:07:19;7.35;;;4.55;;
69203;SDS011;56317;27.658;85.326;2022-10-16T06:09:50;10.00;;;3.97;;
69203;SDS011;56317;27.658;85.326;2022-10-16T06:12:18;12.68;;;3.65;;
69203;SDS011;56317;27.658;85.326;2022-10-16T06:14:46;7.90;;;4.30;;
69203;SDS011;56317;27.658;85.326;2022-10-16T06:17:14;11.95;;;4.30;;
69203;SDS011;56317;27.658;85.326;2022-10-16T06:19:41;10.13;;;3.95;;
69203;SDS011;56317;27.658;85.326;2022-10-16T06:22:09;7.03;;;3.85;;
69203;SDS011;56317;27.658;85.326;2022-10-16T06:24:36;6.28;;;3.60;;
69203;SDS011;56317;27.658;85.326;2022-10-16T06:27:04;6.95;;;4.30;;
69203;SDS011;56317;27.658;85.326;2022-10-16T06:29:31;10.10;;;4.38;;
69203;SDS011;56317;27.658;85.326;2022-10-16T06:31:58;8.07;;;4.68;;
69203;SDS011;56317;27.658;85.326;2022-10-16T06:34:25;11.20;;;5.32;;
69203;SDS011;56317;27.658;85.326;2022-10-16T06:36:53;10.50;;;4.90;;
69203;SDS011;56317;27.658;85.326;2022-10-16T06:39:20;13.10;;;5.07;;
69203;SDS011;56317;27.658;85.326;2022-10-16T06:41:48;9.63;;;5.10;;
69203;SDS011;56317;27.658;85.326;2022-10-16T06:44:15;11.25;;;5.07;;
69203;SDS011;56317;27.658;85.326;2022-10-16T06:46:42;10.18;;;5.28;;
69203;SDS011;56317;27.658;85.326;2022-10-16T06:49:09;11.20;;;5.00;;
69203;SDS011;56317;27.658;85.326;2022-10-16T06:51:36;8.95;;;4.35;;
69203;SDS011;56317;27.658;85.326;2022-10-16T06:54:06;8.40;;;4.40;;
69203;SDS011;56317;27.658;85.326;2022-10-16T06:56:34;9.73;;;4.45;;
69203;SDS011;56317;27.658;85.326;2022-10-16T06:59:01;11.65;;;4.35;;
69203;SDS011;56317;27.658;85.326;2022-10-16T07:01:29;8.57;;;3.65;;
69203;SDS011;56317;27.658;85.326;2022-10-16T07:03:56;6.00;;;3.88;;
69203;SDS011;56317;27.658;85.326;2022-10-16T07:06:24;8.32;;;3.55;;
69203;SDS011;56317;27.658;85.326;2022-10-16T07:08:53;11.17;;;3.37;;
69203;SDS011;56317;27.658;85.326;2022-10-16T07:11:21;9.82;;;3.47;;
69203;SDS011;56317;27.658;85.326;2022-10-16T07:13:49;7.50;;;3.50;;
69203;SDS011;56317;27.658;85.326;2022-10-16T07:16:18;6.18;;;3.70;;
69203;SDS011;56317;27.658;85.326;2022-10-16T07:18:47;5.95;;;3.40;;
69203;SDS011;56317;27.658;85.326;2022-10-16T07:21:18;13.20;;;3.75;;
69203;SDS011;56317;27.658;85.326;2022-10-16T07:23:56;10.63;;;3.55;;
69203;SDS011;56317;27.658;85.326;2022-10-16T07:26:25;16.90;;;7.33;;
69203;SDS011;56317;27.658;85.326;2022-10-16T07:28:53;8.03;;;3.30;;
69203;SDS011;56317;27.658;85.326;2022-10-16T07:31:21;6.15;;;4.03;;
69203;SDS011;56317;27.658;85.326;2022-10-16T07:33:50;11.40;;;4.83;;
69203;SDS011;56317;27.658;85.326;2022-10-16T07:36:18;9.25;;;4.57;;
69203;SDS011;56317;27.658;85.326;2022-10-16T07:38:46;8.60;;;4.10;;
69203;SDS011;56317;27.658;85.326;2022-10-16T07:41:15;9.07;;;3.95;;
69203;SDS011;56317;27.658;85.326;2022-10-16T07:43:48;8.85;;;4.75;;
69203;SDS011;56317;27.658;85.326;2022-10-16T07:46:17;7.93;;;4.60;;
69203;SDS011;56317;27.658;85.326;2022-10-16T07:48:46;8.13;;;4.40;;
69203;SDS011;56317;27.658;85.326;2022-10-16T07:51:14;11.95;;;4.68;;
69203;SDS011;56317;27.658;85.326;2022-10-16T07:53:46;11.35;;;5.10;;
69203;SDS011;56317;27.658;85.326;2022-10-16T07:56:15;13.43;;;5.10;;
69203;SDS011;56317;27.658;85.326;2022-10-16T07:58:43;11.18;;;5.53;;
69203;SDS011;56317;27.658;85.326;2022-10-16T08:01:12;7.35;;;4.57;;
69203;SDS011;56317;27.658;85.326;2022-10-16T08:03:46;7.97;;;4.60;;
69203;SDS011;56317;27.658;85.326;2022-10-16T08:06:17;14.48;;;5.70;;
69203;SDS011;56317;27.658;85.326;2022-10-16T08:08:45;10.48;;;5.57;;
69203;SDS011;56317;27.658;85.326;2022-10-16T08:11:13;10.63;;;5.30;;
69203;SDS011;56317;27.658;85.326;2022-10-16T08:13:41;7.82;;;5.60;;
69203;SDS011;56317;27.658;85.326;2022-10-16T08:16:08;8.93;;;4.57;;
69203;SDS011;56317;27.658;85.326;2022-10-16T08:18:39;11.63;;;5.20;;
69203;SDS011;56317;27.658;85.326;2022-10-16T08:21:08;10.20;;;5.63;;
69203;SDS011;56317;27.658;85.326;2022-10-16T08:23:40;10.88;;;5.32;;
69203;SDS011;56317;27.658;85.326;2022-10-16T08:26:07;13.13;;;5.22;;
69203;SDS011;56317;27.658;85.326;2022-10-16T08:28:35;10.02;;;5.30;;
69203;SDS011;56317;27.658;85.326;2022-10-16T08:31:09;11.40;;;5.78;;
69203;SDS011;56317;27.658;85.326;2022-10-16T08:33:38;8.25;;;5.13;;
69203;SDS011;56317;27.658;85.326;2022-10-16T08:36:07;10.43;;;5.43;;
69203;SDS011;56317;27.658;85.326;2022-10-16T08:38:35;17.13;;;5.30;;
69203;SDS011;56317;27.658;85.326;2022-10-16T08:47:21;10.57;;;5.90;;
69203;SDS011;56317;27.658;85.326;2022-10-16T08:49:29;10.27;;;6.15;;
69203;SDS011;56317;27.658;85.326;2022-10-16T08:51:57;10.05;;;5.45;;
69203;SDS011;56317;27.658;85.326;2022-10-16T08:54:32;11.02;;;5.68;;
69203;SDS011;56317;27.658;85.326;2022-10-16T08:57:29;9.88;;;5.32;;
69203;SDS011;56317;27.658;85.326;2022-10-16T08:59:57;9.40;;;4.90;;
69203;SDS011;56317;27.658;85.326;2022-10-16T09:02:35;9.75;;;5.55;;
69203;SDS011;56317;27.658;85.326;2022-10-16T09:05:57;9.45;;;6.07;;
69203;SDS011;56317;27.658;85.326;2022-10-16T09:11:48;10.35;;;5.07;;
69203;SDS011;56317;27.658;85.326;2022-10-16T09:14:29;15.27;;;6.05;;
69203;SDS011;56317;27.658;85.326;2022-10-16T09:19:56;10.15;;;5.70;;
69203;SDS011;56317;27.658;85.326;2022-10-16T09:22:27;12.48;;;5.50;;
69203;SDS011;56317;27.658;85.326;2022-10-16T09:27:25;10.88;;;5.85;;
69203;SDS011;56317;27.658;85.326;2022-10-16T09:29:53;11.80;;;6.13;;
69203;SDS011;56317;27.658;85.326;2022-10-16T09:32:21;13.13;;;6.57;;
69203;SDS011;56317;27.658;85.326;2022-10-16T09:34:53;9.45;;;5.85;;
69203;SDS011;56317;27.658;85.326;2022-10-16T09:37:24;13.45;;;6.60;;
69203;SDS011;56317;27.658;85.326;2022-10-16T09:39:52;13.00;;;6.40;;
69203;SDS011;56317;27.658;85.326;2022-10-16T09:42:21;16.50;;;6.30;;
69203;SDS011;56317;27.658;85.326;2022-10-16T09:44:53;9.73;;;5.60;;
69203;SDS011;56317;27.658;85.326;2022-10-16T09:47:21;10.48;;;5.60;;
69203;SDS011;56317;27.658;85.326;2022-10-16T09:49:52;12.02;;;5.65;;
69203;SDS011;56317;27.658;85.326;2022-10-16T09:52:21;11.50;;;6.15;;
69203;SDS011;56317;27.658;85.326;2022-10-16T09:54:53;10.18;;;5.30;;
69203;SDS011;56317;27.658;85.326;2022-10-16T09:57:20;13.10;;;5.97;;
69203;SDS011;56317;27.658;85.326;2022-10-16T09:59:49;13.65;;;5.80;;
69203;SDS011;56317;27.658;85.326;2022-10-16T10:02:19;9.52;;;6.30;;
69203;SDS011;56317;27.658;85.326;2022-10-16T10:05:05;15.60;;;6.57;;
69203;SDS011;56317;27.658;85.326;2022-10-16T10:07:43;10.95;;;6.57;;
69203;SDS011;56317;27.658;85.326;2022-10-16T10:10:24;15.27;;;7.35;;
69203;SDS011;56317;27.658;85.326;2022-10-16T10:12:57;12.13;;;7.20;;
69203;SDS011;56317;27.658;85.326;2022-10-16T10:15:33;12.25;;;6.97;;
69203;SDS011;56317;27.658;85.326;2022-10-16T10:18:02;14.60;;;7.97;;
69203;SDS011;56317;27.658;85.326;2022-10-16T10:20:42;15.00;;;7.80;;
69203;SDS011;56317;27.658;85.326;2022-10-16T10:23:22;18.35;;;8.93;;
69203;SDS011;56317;27.658;85.326;2022-10-16T10:39:48;13.77;;;7.57;;
69203;SDS011;56317;27.658;85.326;2022-10-16T10:42:32;14.90;;;8.18;;
69203;SDS011;56317;27.658;85.326;2022-10-16T10:45:16;15.00;;;8.70;;
69203;SDS011;56317;27.658;85.326;2022-10-16T10:50:41;19.70;;;9.25;;
69203;SDS011;56317;27.658;85.326;2022-10-16T10:59:08;21.42;;;10.38;;
69203;SDS011;56317;27.658;85.326;2022-10-16T11:07:47;24.48;;;12.68;;
69203;SDS011;56317;27.658;85.326;2022-10-16T11:10:15;28.00;;;12.43;;
69203;SDS011;56317;27.658;85.326;2022-10-16T11:13:08;23.05;;;12.18;;
69203;SDS011;56317;27.658;85.326;2022-10-16T11:15:37;18.75;;;11.43;;
69203;SDS011;56317;27.658;85.326;2022-10-16T11:21:07;23.98;;;13.45;;
69203;SDS011;56317;27.658;85.326;2022-10-16T11:26:21;30.88;;;14.48;;
69203;SDS011;56317;27.658;85.326;2022-10-16T11:28:55;27.08;;;15.05;;
69203;SDS011;56317;27.658;85.326;2022-10-16T11:34:01;22.65;;;14.05;;
69203;SDS011;56317;27.658;85.326;2022-10-16T11:36:53;29.48;;;14.30;;
69203;SDS011;56317;27.658;85.326;2022-10-16T11:39:29;33.20;;;14.50;;
69203;SDS011;56317;27.658;85.326;2022-10-16T11:41:59;32.13;;;14.27;;
69203;SDS011;56317;27.658;85.326;2022-10-16T11:44:36;26.92;;;14.05;;
69203;SDS011;56317;27.658;85.326;2022-10-16T11:47:19;35.03;;;15.82;;
69203;SDS011;56317;27.658;85.326;2022-10-16T11:50:23;21.15;;;15.05;;
69203;SDS011;56317;27.658;85.326;2022-10-16T11:56:03;31.75;;;15.93;;
69203;SDS011;56317;27.658;85.326;2022-10-16T11:58:32;27.40;;;18.13;;
69203;SDS011;56317;27.658;85.326;2022-10-16T12:06:34;36.67;;;17.90;;
69203;SDS011;56317;27.658;85.326;2022-10-16T12:11:51;36.30;;;17.92;;
69203;SDS011;56317;27.658;85.326;2022-10-16T12:14:20;43.00;;;19.83;;
69203;SDS011;56317;27.658;85.326;2022-10-16T12:17:04;39.97;;;18.63;;
69203;SDS011;56317;27.658;85.326;2022-10-16T12:23:21;38.92;;;21.20;;
69203;SDS011;56317;27.658;85.326;2022-10-16T12:25:33;45.35;;;24.13;;
69203;SDS011;56317;27.658;85.326;2022-10-16T12:28:06;44.25;;;21.13;;
69203;SDS011;56317;27.658;85.326;2022-10-16T12:31:01;43.38;;;20.80;;
69203;SDS011;56317;27.658;85.326;2022-10-16T12:33:33;43.15;;;23.70;;
69203;SDS011;56317;27.658;85.326;2022-10-16T12:36:02;53.92;;;25.08;;
69203;SDS011;56317;27.658;85.326;2022-10-16T12:38:45;45.72;;;23.50;;
69203;SDS011;56317;27.658;85.326;2022-10-16T12:41:24;44.85;;;25.70;;
69203;SDS011;56317;27.658;85.326;2022-10-16T12:44:03;49.78;;;24.85;;
69203;SDS011;56317;27.658;85.326;2022-10-16T12:49:34;50.78;;;26.48;;
69203;SDS011;56317;27.658;85.326;2022-10-16T12:51:54;53.95;;;26.23;;
69203;SDS011;56317;27.658;85.326;2022-10-16T12:54:40;54.28;;;25.88;;
69203;SDS011;56317;27.658;85.326;2022-10-16T12:57:12;48.50;;;24.65;;
69203;SDS011;56317;27.658;85.326;2022-10-16T13:00:21;46.50;;;25.90;;
69203;SDS011;56317;27.658;85.326;2022-10-16T13:11:20;46.40;;;22.23;;
69203;SDS011;56317;27.658;85.326;2022-10-16T13:17:11;37.40;;;20.02;;
69203;SDS011;56317;27.658;85.326;2022-10-16T13:20:19;35.85;;;20.80;;
69203;SDS011;56317;27.658;85.326;2022-10-16T13:28:16;54.20;;;27.15;;
69203;SDS011;56317;27.658;85.326;2022-10-16T13:30:51;50.90;;;26.80;;
69203;SDS011;56317;27.658;85.326;2022-10-16T13:33:21;59.63;;;28.55;;
69203;SDS011;56317;27.658;85.326;2022-10-16T13:35:57;45.38;;;28.10;;
69203;SDS011;56317;27.658;85.326;2022-10-16T13:38:25;43.13;;;22.02;;
69203;SDS011;56317;27.658;85.326;2022-10-16T13:41:02;43.13;;;22.20;;
69203;SDS011;56317;27.658;85.326;2022-10-16T13:43:41;45.10;;;21.35;;
69203;SDS011;56317;27.658;85.326;2022-10-16T13:46:18;39.95;;;22.35;;
69203;SDS011;56317;27.658;85.326;2022-10-16T13:48:57;40.67;;;22.90;;
69203;SDS011;56317;27.658;85.326;2022-10-16T13:51:37;42.70;;;21.65;;
69203;SDS011;56317;27.658;85.326;2022-10-16T13:54:04;37.05;;;21.00;;
69203;SDS011;56317;27.658;85.326;2022-10-16T13:56:32;45.55;;;19.92;;
69203;SDS011;56317;27.658;85.326;2022-10-16T13:59:00;37.38;;;19.25;;
69203;SDS011;56317;27.658;85.326;2022-10-16T14:01:39;35.85;;;19.33;;
69203;SDS011;56317;27.658;85.326;2022-10-16T14:04:09;39.70;;;19.20;;
69203;SDS011;56317;27.658;85.326;2022-10-16T14:06:43;40.67;;;18.90;;
69203;SDS011;56317;27.658;85.326;2022-10-16T14:09:22;33.60;;;17.80;;
69203;SDS011;56317;27.658;85.326;2022-10-16T14:12:06;36.35;;;16.85;;
69203;SDS011;56317;27.658;85.326;2022-10-16T14:14:41;27.52;;;15.02;;
69203;SDS011;56317;27.658;85.326;2022-10-16T14:17:14;34.38;;;15.80;;
69203;SDS011;56317;27.658;85.326;2022-10-16T14:19:48;36.40;;;16.77;;
69203;SDS011;56317;27.658;85.326;2022-10-16T14:28:14;31.83;;;14.45;;
69203;SDS011;56317;27.658;85.326;2022-10-16T14:30:57;31.38;;;14.77;;
69203;SDS011;56317;27.658;85.326;2022-10-16T14:41:29;23.67;;;14.23;;
69203;SDS011;56317;27.658;85.326;2022-10-16T14:44:02;32.97;;;14.23;;
69203;SDS011;56317;27.658;85.326;2022-10-16T14:46:34;31.70;;;14.65;;
69203;SDS011;56317;27.658;85.326;2022-10-16T14:51:37;26.63;;;13.15;;
69203;SDS011;56317;27.658;85.326;2022-10-16T14:54:10;25.02;;;13.63;;
69203;SDS011;56317;27.658;85.326;2022-10-16T14:59:17;29.63;;;14.85;;
69203;SDS011;56317;27.658;85.326;2022-10-16T15:01:50;34.00;;;15.40;;
69203;SDS011;56317;27.658;85.326;2022-10-16T15:04:18;29.60;;;14.93;;
69203;SDS011;56317;27.658;85.326;2022-10-16T15:06:45;25.00;;;14.38;;
69203;SDS011;56317;27.658;85.326;2022-10-16T15:09:12;35.97;;;14.63;;
69203;SDS011;56317;27.658;85.326;2022-10-16T15:11:39;27.17;;;14.18;;
69203;SDS011;56317;27.658;85.326;2022-10-16T15:14:13;30.48;;;16.30;;
69203;SDS011;56317;27.658;85.326;2022-10-16T15:16:40;29.65;;;14.10;;
69203;SDS011;56317;27.658;85.326;2022-10-16T15:19:07;25.10;;;13.98;;
69203;SDS011;56317;27.658;85.326;2022-10-16T15:21:34;56.78;;;18.23;;
69203;SDS011;56317;27.658;85.326;2022-10-16T15:24:02;43.30;;;14.95;;
69203;SDS011;56317;27.658;85.326;2022-10-16T15:26:29;28.95;;;12.68;;
69203;SDS011;56317;27.658;85.326;2022-10-16T15:28:56;32.90;;;13.45;;
69203;SDS011;56317;27.658;85.326;2022-10-16T15:31:24;30.27;;;14.05;;
69203;SDS011;56317;27.658;85.326;2022-10-16T15:33:52;36.00;;;15.00;;
69203;SDS011;56317;27.658;85.326;2022-10-16T15:36:27;28.67;;;13.70;;
69203;SDS011;56317;27.658;85.326;2022-10-16T15:38:55;28.05;;;13.23;;
69203;SDS011;56317;27.658;85.326;2022-10-16T15:41:23;25.05;;;13.52;;
69203;SDS011;56317;27.658;85.326;2022-10-16T15:43:50;20.90;;;11.85;;
69203;SDS011;56317;27.658;85.326;2022-10-16T15:46:19;35.08;;;14.25;;
69203;SDS011;56317;27.658;85.326;2022-10-16T15:48:48;32.38;;;13.32;;
69203;SDS011;56317;27.658;85.326;2022-10-16T15:51:16;26.38;;;12.75;;
69203;SDS011;56317;27.658;85.326;2022-10-16T15:53:44;28.23;;;12.80;;
69203;SDS011;56317;27.658;85.326;2022-10-16T15:56:12;32.40;;;13.45;;
69203;SDS011;56317;27.658;85.326;2022-10-16T15:58:40;32.55;;;14.00;;
69203;SDS011;56317;27.658;85.326;2022-10-16T16:01:07;28.45;;;13.52;;
69203;SDS011;56317;27.658;85.326;2022-10-16T16:03:36;25.98;;;13.50;;
69203;SDS011;56317;27.658;85.326;2022-10-16T16:06:07;41.28;;;15.20;;
69203;SDS011;56317;27.658;85.326;2022-10-16T16:08:35;43.22;;;14.85;;
69203;SDS011;56317;27.658;85.326;2022-10-16T16:11:05;30.38;;;13.60;;
69203;SDS011;56317;27.658;85.326;2022-10-16T16:13:39;29.20;;;13.40;;
69203;SDS011;56317;27.658;85.326;2022-10-16T16:16:07;36.00;;;12.73;;
69203;SDS011;56317;27.658;85.326;2022-10-16T16:18:36;29.58;;;12.20;;
69203;SDS011;56317;27.658;85.326;2022-10-16T16:21:04;28.58;;;11.43;;
69203;SDS011;56317;27.658;85.326;2022-10-16T16:23:31;33.28;;;12.20;;
69203;SDS011;56317;27.658;85.326;2022-10-16T16:26:32;40.53;;;13.05;;
69203;SDS011;56317;27.658;85.326;2022-10-16T16:29:02;29.48;;;11.77;;
69203;SDS011;56317;27.658;85.326;2022-10-16T16:31:30;20.33;;;9.73;;
69203;SDS011;56317;27.658;85.326;2022-10-16T16:33:59;29.92;;;11.60;;
69203;SDS011;56317;27.658;85.326;2022-10-16T16:36:26;23.65;;;10.70;;
69203;SDS011;56317;27.658;85.326;2022-10-16T16:38:53;24.90;;;10.50;;
69203;SDS011;56317;27.658;85.326;2022-10-16T16:41:22;22.90;;;11.25;;
69203;SDS011;56317;27.658;85.326;2022-10-16T16:43:55;17.27;;;8.80;;
69203;SDS011;56317;27.658;85.326;2022-10-16T16:46:29;19.13;;;9.57;;
69203;SDS011;56317;27.658;85.326;2022-10-16T16:48:57;17.08;;;9.57;;
69203;SDS011;56317;27.658;85.326;2022-10-16T16:51:25;23.23;;;9.95;;